Time;durP1;ratioP1;P1;durP2;ratioP2;P2;SDS_P1;SDS_P2;PMS_P1;PMS_P2;Temp;Humidity;BMP_temperature;BMP_pressure;BME280_temperature;BME280_humidity;BME280_pressure;Samples;Min_cycle;Max_cycle;Signal;HPM_P1;HPM_P2
2023/03/25 00:01:24;;;;;;;8.00;7.30;;;;;;;;;;10295491;28;20060;-63
2023/03/25 00:06:24;;;;;;;8.55;7.68;;;;;;;;;;10293864;28;20064;-63
2023/03/25 00:11:22;;;;;;;9.55;7.25;;;;;;;;;;10301109;28;20077;-62
2023/03/25 00:16:21;;;;;;;9.05;8.15;;;;;;;;;;10292470;28;20064;-63
2023/03/25 00:21:20;;;;;;;8.45;7.05;;;;;;;;;;10294462;28;20075;-63
2023/03/25 00:26:19;;;;;;;7.45;6.57;;;;;;;;;;10293091;28;20064;-63
2023/03/25 00:31:20;;;;;;;9.02;6.97;;;;;;;;;;10299837;28;20076;-63
2023/03/25 00:36:19;;;;;;;9.18;7.30;;;;;;;;;;10294015;28;20068;-63
2023/03/25 00:41:24;;;;;;;7.78;7.05;;;;;;;;;;10291682;28;20098;-63
2023/03/25 00:46:22;;;;;;;8.10;7.30;;;;;;;;;;10295428;28;20509;-62
2023/03/25 00:51:21;;;;;;;7.50;6.72;;;;;;;;;;10294003;28;20073;-63
2023/03/25 00:56:23;;;;;;;10.70;8.82;;;;;;;;;;10297838;28;20075;-63
2023/03/25 01:01:25;;;;;;;9.18;8.20;;;;;;;;;;10291537;28;20069;-63
2023/03/25 01:06:28;;;;;;;8.60;7.38;;;;;;;;;;10299391;28;20084;-64
2023/03/25 01:11:29;;;;;;;7.97;7.18;;;;;;;;;;10289524;28;20076;-63
2023/03/25 01:16:27;;;;;;;8.38;6.80;;;;;;;;;;10292909;28;20096;-62
2023/03/25 01:21:26;;;;;;;10.00;7.13;;;;;;;;;;10294902;28;20068;-63
2023/03/25 01:26:24;;;;;;;7.13;6.47;;;;;;;;;;10290221;28;20071;-62
2023/03/25 01:31:29;;;;;;;7.05;6.38;;;;;;;;;;10290928;28;20087;-63
2023/03/25 01:36:29;;;;;;;7.80;6.28;;;;;;;;;;10293031;28;20072;-62
2023/03/25 01:41:28;;;;;;;8.40;7.13;;;;;;;;;;10290438;28;20084;-62
2023/03/25 01:46:47;;;;;;;7.53;6.78;;;;;;;;;;10292115;28;20502;-63
2023/03/25 01:51:50;;;;;;;7.65;6.65;;;;;;;;;;10297550;28;20083;-62
2023/03/25 01:56:49;;;;;;;8.15;6.68;;;;;;;;;;10297827;28;20084;-63
2023/03/25 02:01:50;;;;;;;7.53;6.68;;;;;;;;;;10291275;28;20081;-63
2023/03/25 02:06:49;;;;;;;7.43;6.72;;;;;;;;;;10297351;28;20072;-63
2023/03/25 02:11:48;;;;;;;7.55;6.85;;;;;;;;;;10292001;28;20072;-62
2023/03/25 02:16:49;;;;;;;7.22;6.53;;;;;;;;;;10290584;28;20088;-62
2023/03/25 02:22:06;;;;;;;7.47;6.68;;;;;;;;;;10288446;28;20068;-62
2023/03/25 02:27:13;;;;;;;7.43;6.72;;;;;;;;;;10287180;28;20061;-62
2023/03/25 02:32:18;;;;;;;8.07;7.28;;;;;;;;;;10281128;28;20099;-63
2023/03/25 02:37:30;;;;;;;8.87;7.97;;;;;;;;;;10286508;28;20072;-63
2023/03/25 02:42:33;;;;;;;7.57;6.85;;;;;;;;;;10289593;28;20091;-63
2023/03/25 02:47:33;;;;;;;7.82;6.70;;;;;;;;;;10293729;28;20073;-63
2023/03/25 02:52:33;;;;;;;8.70;7.32;;;;;;;;;;10295034;28;20505;-63
2023/03/25 02:57:34;;;;;;;7.65;6.95;;;;;;;;;;10296460;28;20076;-63
2023/03/25 03:02:33;;;;;;;7.00;6.30;;;;;;;;;;10299029;28;20077;-62
2023/03/25 03:07:33;;;;;;;8.00;7.18;;;;;;;;;;10303429;28;20080;-63
2023/03/25 03:12:41;;;;;;;7.75;7.05;;;;;;;;;;10299675;28;20087;-63
2023/03/25 03:17:43;;;;;;;7.70;6.93;;;;;;;;;;10286002;28;20099;-63
2023/03/25 03:22:45;;;;;;;8.05;7.20;;;;;;;;;;10283453;28;20087;-63
2023/03/25 03:27:47;;;;;;;7.40;6.70;;;;;;;;;;10295097;28;21168;-63
2023/03/25 03:32:52;;;;;;;8.52;6.80;;;;;;;;;;10295732;28;21455;-62
2023/03/25 03:37:52;;;;;;;10.15;7.72;;;;;;;;;;10291084;28;20448;-62
2023/03/25 03:42:54;;;;;;;8.65;7.55;;;;;;;;;;10288483;28;20060;-62
2023/03/25 03:47:55;;;;;;;7.65;6.85;;;;;;;;;;10288286;28;20494;-63
2023/03/25 03:52:56;;;;;;;8.15;7.25;;;;;;;;;;10292109;28;20517;-63
2023/03/25 03:57:57;;;;;;;7.60;6.82;;;;;;;;;;10293623;28;20068;-63
2023/03/25 04:02:58;;;;;;;8.63;6.53;;;;;;;;;;10293388;28;20537;-63
2023/03/25 04:07:58;;;;;;;7.25;6.18;;;;;;;;;;10291415;28;20068;-63
2023/03/25 04:13:00;;;;;;;8.40;7.32;;;;;;;;;;10288743;28;20502;-61
2023/03/25 04:18:00;;;;;;;10.18;7.30;;;;;;;;;;10289185;28;20072;-62
2023/03/25 04:22:58;;;;;;;8.45;7.65;;;;;;;;;;10291607;28;20068;-63
2023/03/25 04:27:58;;;;;;;8.02;7.22;;;;;;;;;;10291577;28;20064;-63
2023/03/25 04:32:57;;;;;;;8.43;7.60;;;;;;;;;;10291799;28;20076;-64
2023/03/25 04:37:56;;;;;;;7.78;6.70;;;;;;;;;;10250848;28;1166640;-63
2023/03/25 04:42:55;;;;;;;7.40;6.70;;;;;;;;;;10292924;28;20084;-63
2023/03/25 04:47:55;;;;;;;9.05;7.45;;;;;;;;;;10293961;28;20081;-63
2023/03/25 04:52:56;;;;;;;8.23;7.43;;;;;;;;;;10293102;28;20076;-63
2023/03/25 04:57:55;;;;;;;8.55;6.35;;;;;;;;;;10291737;28;20076;-63
2023/03/25 05:02:54;;;;;;;8.27;7.43;;;;;;;;;;10293244;28;20494;-63
2023/03/25 05:07:56;;;;;;;8.82;7.93;;;;;;;;;;10291215;28;20088;-63
2023/03/25 05:12:58;;;;;;;7.95;7.15;;;;;;;;;;10288072;28;20064;-63
2023/03/25 05:17:56;;;;;;;8.60;6.32;;;;;;;;;;10288428;28;20075;-63
2023/03/25 05:22:56;;;;;;;6.80;6.13;;;;;;;;;;10288053;28;20623;-64
2023/03/25 05:27:54;;;;;;;7.72;6.40;;;;;;;;;;10289857;28;20064;-63
2023/03/25 05:32:53;;;;;;;8.82;7.38;;;;;;;;;;10291932;28;20136;-63
2023/03/25 05:37:54;;;;;;;8.65;6.20;;;;;;;;;;10290302;28;20103;-62
2023/03/25 05:42:54;;;;;;;7.65;6.30;;;;;;;;;;10292588;28;20068;-62
2023/03/25 05:47:53;;;;;;;7.22;6.53;;;;;;;;;;10292440;28;20466;-63
2023/03/25 05:52:51;;;;;;;7.10;6.45;;;;;;;;;;10283672;28;20064;-62
2023/03/25 05:57:49;;;;;;;7.65;6.75;;;;;;;;;;10284104;28;20068;-63
2023/03/25 06:02:49;;;;;;;7.47;6.68;;;;;;;;;;10288209;28;20065;-63
2023/03/25 06:07:48;;;;;;;8.82;7.15;;;;;;;;;;10289087;28;20072;-62
2023/03/25 06:12:47;;;;;;;8.00;7.05;;;;;;;;;;10285868;28;20079;-62
2023/03/25 06:17:46;;;;;;;7.05;6.35;;;;;;;;;;10291329;28;20052;-61
2023/03/25 06:22:46;;;;;;;8.20;7.43;;;;;;;;;;10277346;28;20076;-62
2023/03/25 06:27:44;;;;;;;7.82;6.97;;;;;;;;;;10286304;28;20044;-61
2023/03/25 06:32:42;;;;;;;11.85;8.68;;;;;;;;;;10287748;28;20543;-62
2023/03/25 06:37:41;;;;;;;12.55;7.50;;;;;;;;;;10285086;28;20087;-62
2023/03/25 06:42:46;;;;;;;20.38;9.35;;;;;;;;;;10294966;28;20061;-62
2023/03/25 06:48:04;;;;;;;34.17;9.70;;;;;;;;;;10300217;28;20088;-62
2023/03/25 06:53:02;;;;;;;42.05;10.57;;;;;;;;;;10283571;28;20076;-62
2023/03/25 06:58:02;;;;;;;17.55;7.80;;;;;;;;;;10285845;28;20076;-62
2023/03/25 07:03:00;;;;;;;19.20;8.13;;;;;;;;;;10278874;28;20092;-62
2023/03/25 07:07:59;;;;;;;17.48;7.05;;;;;;;;;;10286120;28;20077;-62
2023/03/25 07:12:57;;;;;;;18.25;8.48;;;;;;;;;;10283213;28;20475;-63
2023/03/25 07:17:56;;;;;;;10.45;7.13;;;;;;;;;;10284934;28;20076;-62
2023/03/25 07:22:55;;;;;;;15.68;11.45;;;;;;;;;;10288150;28;20506;-63
2023/03/25 07:27:53;;;;;;;15.88;9.43;;;;;;;;;;10285617;28;20081;-63
2023/03/25 07:32:52;;;;;;;8.65;7.35;;;;;;;;;;10287169;28;20486;-63
2023/03/25 07:37:51;;;;;;;9.25;7.35;;;;;;;;;;10289512;28;20087;-63
2023/03/25 07:42:50;;;;;;;7.78;6.97;;;;;;;;;;10296284;28;20080;-63
2023/03/25 07:47:53;;;;;;;7.05;6.28;;;;;;;;;;10288019;28;20491;-64
2023/03/25 07:52:52;;;;;;;6.25;5.60;;;;;;;;;;10286458;28;20068;-63
2023/03/25 07:57:51;;;;;;;9.48;6.47;;;;;;;;;;10281296;28;20068;-63
2023/03/25 08:02:49;;;;;;;7.38;6.68;;;;;;;;;;10289560;28;20064;-62
2023/03/25 08:07:47;;;;;;;9.65;6.55;;;;;;;;;;10297948;28;20041;-62
2023/03/25 08:12:47;;;;;;;11.38;6.03;;;;;;;;;;10291626;28;20181;-64
2023/03/25 08:17:45;;;;;;;10.98;6.40;;;;;;;;;;10294404;28;20087;-63
2023/03/25 08:22:44;;;;;;;6.60;5.90;;;;;;;;;;10286768;28;20505;-63
2023/03/25 08:27:42;;;;;;;7.45;6.63;;;;;;;;;;10276695;28;20065;-63
2023/03/25 08:32:44;;;;;;;6.88;5.40;;;;;;;;;;10290578;28;20079;-63
2023/03/25 08:37:43;;;;;;;10.13;6.38;;;;;;;;;;10294313;28;20080;-63
2023/03/25 08:42:41;;;;;;;6.82;5.70;;;;;;;;;;10288629;28;20079;-62
2023/03/25 08:47:41;;;;;;;7.00;6.13;;;;;;;;;;10279428;28;20061;-62
2023/03/25 08:52:40;;;;;;;7.03;5.90;;;;;;;;;;10288986;28;20079;-63
2023/03/25 08:57:39;;;;;;;6.30;5.70;;;;;;;;;;10290488;28;20483;-62
2023/03/25 09:02:37;;;;;;;8.55;5.47;;;;;;;;;;10288894;28;20068;-62
2023/03/25 09:07:35;;;;;;;8.98;6.40;;;;;;;;;;10289613;28;20096;-63
2023/03/25 09:12:35;;;;;;;5.72;5.18;;;;;;;;;;10290334;28;20076;-63
2023/03/25 09:17:34;;;;;;;7.90;6.80;;;;;;;;;;10278361;28;20178;-62
2023/03/25 09:22:32;;;;;;;7.05;5.68;;;;;;;;;;10287872;28;20071;-63
2023/03/25 09:27:30;;;;;;;6.45;5.80;;;;;;;;;;10285657;28;21026;-63
2023/03/25 09:32:30;;;;;;;7.68;6.18;;;;;;;;;;10282373;28;20431;-62
2023/03/25 09:37:28;;;;;;;9.38;5.88;;;;;;;;;;10285858;28;20068;-63
2023/03/25 09:42:34;;;;;;;10.82;6.07;;;;;;;;;;10286921;28;20064;-64
2023/03/25 09:47:34;;;;;;;12.52;8.15;;;;;;;;;;10288925;28;20088;-62
2023/03/25 09:52:35;;;;;;;8.90;5.93;;;;;;;;;;10297371;28;20481;-61
2023/03/25 09:57:37;;;;;;;6.18;5.47;;;;;;;;;;10289781;28;20072;-62
2023/03/25 10:02:40;;;;;;;7.25;5.63;;;;;;;;;;10289809;28;20502;-62
2023/03/25 10:07:44;;;;;;;7.32;5.95;;;;;;;;;;10289331;28;20080;-62
2023/03/25 10:12:47;;;;;;;5.85;5.15;;;;;;;;;;10284890;28;20077;-62
2023/03/25 10:17:55;;;;;;;7.10;6.00;;;;;;;;;;10285674;28;20076;-62
2023/03/25 10:22:59;;;;;;;8.73;5.63;;;;;;;;;;10290709;28;20080;-63
2023/03/25 10:27:58;;;;;;;10.90;6.57;;;;;;;;;;10288667;28;20064;-63
2023/03/25 10:32:58;;;;;;;9.77;7.05;;;;;;;;;;10289195;28;20095;-63
2023/03/25 10:37:59;;;;;;;7.05;6.20;;;;;;;;;;10290150;28;20076;-63
2023/03/25 10:43:07;;;;;;;7.97;6.25;;;;;;;;;;10288926;28;20076;-63
2023/03/25 10:48:11;;;;;;;7.05;6.35;;;;;;;;;;10289862;28;20422;-63
2023/03/25 10:53:15;;;;;;;8.70;7.65;;;;;;;;;;10289132;28;20072;-63
2023/03/25 10:58:16;;;;;;;8.70;7.20;;;;;;;;;;10284676;28;20071;-64
2023/03/25 11:03:18;;;;;;;7.25;6.47;;;;;;;;;;10290365;28;20080;-63
2023/03/25 11:08:16;;;;;;;8.65;6.38;;;;;;;;;;10290926;28;20076;-64
2023/03/25 11:13:23;;;;;;;6.88;6.18;;;;;;;;;;10296983;28;20068;-62
2023/03/25 11:18:26;;;;;;;9.90;6.10;;;;;;;;;;10296170;28;20076;-63
2023/03/25 11:23:25;;;;;;;7.38;6.45;;;;;;;;;;10295862;28;20536;-62
2023/03/25 11:28:32;;;;;;;7.55;6.85;;;;;;;;;;10296586;28;20084;-63
2023/03/25 11:33:31;;;;;;;8.95;6.55;;;;;;;;;;10296149;28;20067;-62
2023/03/25 11:38:31;;;;;;;7.50;6.03;;;;;;;;;;10291229;28;20080;-64
2023/03/25 11:43:32;;;;;;;5.88;5.30;;;;;;;;;;10295635;28;20076;-63
2023/03/25 11:48:37;;;;;;;7.72;6.18;;;;;;;;;;10291555;28;20045;-63
2023/03/25 11:53:35;;;;;;;;;;;;;;;;;;10294951;28;20076;-63
2023/03/25 11:58:34;;;;;;;6.68;5.95;;;;;;;;;;10295432;28;19968;-63
2023/03/25 12:03:34;;;;;;;6.05;5.45;;;;;;;;;;10294546;28;20080;-63
2023/03/25 12:08:42;;;;;;;6.38;5.10;;;;;;;;;;10294595;28;20085;-63
2023/03/25 12:13:49;;;;;;;4.70;4.30;;;;;;;;;;10294938;28;20525;-63
2023/03/25 12:19:02;;;;;;;6.50;5.00;;;;;;;;;;10295206;28;20072;-63
2023/03/25 12:24:06;;;;;;;6.18;5.07;;;;;;;;;;10295661;28;20040;-64
2023/03/25 12:29:13;;;;;;;5.47;4.57;;;;;;;;;;10289258;28;20079;-64
2023/03/25 12:34:18;;;;;;;6.63;4.45;;;;;;;;;;10294394;28;20073;-64
2023/03/25 12:39:23;;;;;;;5.75;4.93;;;;;;;;;;10294081;28;20537;-63
2023/03/25 12:44:44;;;;;;;6.10;5.03;;;;;;;;;;10293016;28;20083;-64
2023/03/25 12:49:57;;;;;;;4.88;4.45;;;;;;;;;;10289262;28;20072;-63
2023/03/25 12:55:14;;;;;;;5.38;4.85;;;;;;;;;;10281445;28;20088;-63
2023/03/25 13:00:25;;;;;;;5.63;4.35;;;;;;;;;;10292080;28;20072;-62
2023/03/25 13:05:25;;;;;;;7.45;5.15;;;;;;;;;;10293096;28;20679;-63
2023/03/25 13:10:27;;;;;;;4.38;3.97;;;;;;;;;;10292189;28;20103;-63
2023/03/25 13:15:27;;;;;;;5.35;4.72;;;;;;;;;;10294056;28;20072;-62
2023/03/25 13:20:27;;;;;;;7.22;5.10;;;;;;;;;;10293871;28;20059;-63
2023/03/25 13:25:29;;;;;;;6.63;5.60;;;;;;;;;;10291375;28;20101;-63
2023/03/25 13:30:30;;;;;;;6.90;5.10;;;;;;;;;;10287381;28;20553;-64
2023/03/25 13:35:37;;;;;;;5.32;4.05;;;;;;;;;;10296597;28;20072;-62
2023/03/25 13:40:40;;;;;;;5.18;4.65;;;;;;;;;;10288610;28;20510;-62
2023/03/25 13:45:41;;;;;;;9.82;4.70;;;;;;;;;;10291261;28;20079;-62
2023/03/25 13:50:40;;;;;;;6.38;4.40;;;;;;;;;;10291079;28;20068;-64
2023/03/25 13:55:42;;;;;;;6.10;5.50;;;;;;;;;;10288561;28;20081;-63
2023/03/25 14:00:51;;;;;;;9.60;5.28;;;;;;;;;;10292262;28;20064;-63
2023/03/25 14:06:00;;;;;;;6.13;5.53;;;;;;;;;;10287130;28;20072;-63
2023/03/25 14:11:10;;;;;;;6.15;4.93;;;;;;;;;;10285864;28;20068;-64
2023/03/25 14:16:10;;;;;;;8.88;6.88;;;;;;;;;;10289584;28;20077;-63
2023/03/25 14:21:13;;;;;;;5.55;5.05;;;;;;;;;;10290981;28;20536;-63
2023/03/25 14:26:13;;;;;;;8.10;5.05;;;;;;;;;;10287761;28;20060;-63
2023/03/25 14:31:24;;;;;;;9.88;5.00;;;;;;;;;;10290491;28;20064;-63
2023/03/25 14:36:28;;;;;;;5.85;4.47;;;;;;;;;;10291331;28;20073;-62
2023/03/25 14:41:45;;;;;;;6.30;4.93;;;;;;;;;;10291044;28;20083;-64
2023/03/25 14:46:45;;;;;;;5.78;5.25;;;;;;;;;;10299965;28;20084;-63
2023/03/25 14:51:45;;;;;;;6.75;5.65;;;;;;;;;;10297177;28;20063;-63
2023/03/25 14:56:46;;;;;;;8.40;6.55;;;;;;;;;;10297687;28;20077;-63
2023/03/25 15:01:46;;;;;;;9.05;5.53;;;;;;;;;;10298287;28;20073;-63
2023/03/25 15:06:47;;;;;;;7.95;7.15;;;;;;;;;;10294516;28;20087;-62
2023/03/25 15:11:52;;;;;;;11.68;8.48;;;;;;;;;;10298148;28;20533;-64
2023/03/25 15:16:59;;;;;;;7.53;6.80;;;;;;;;;;10295971;28;20076;-63
2023/03/25 15:22:17;;;;;;;6.40;5.13;;;;;;;;;;10292849;28;20092;-62
2023/03/25 15:27:23;;;;;;;5.95;5.00;;;;;;;;;;10295041;28;20487;-63
2023/03/25 15:32:32;;;;;;;9.13;6.88;;;;;;;;;;10295470;28;20608;-62
2023/03/25 15:37:45;;;;;;;10.73;8.25;;;;;;;;;;10293167;28;20072;-62
2023/03/25 15:42:50;;;;;;;11.95;5.65;;;;;;;;;;10294774;28;20084;-62
2023/03/25 15:48:09;;;;;;;9.27;7.88;;;;;;;;;;10290110;28;20065;-63
2023/03/25 15:53:22;;;;;;;10.07;7.78;;;;;;;;;;10292069;28;20111;-63
2023/03/25 15:58:40;;;;;;;8.23;6.93;;;;;;;;;;10295845;28;20076;-62
2023/03/25 16:03:39;;;;;;;11.48;7.20;;;;;;;;;;10299043;28;20049;-63
2023/03/25 16:08:40;;;;;;;12.00;10.75;;;;;;;;;;10293666;28;20068;-62
2023/03/25 16:13:38;;;;;;;12.73;9.43;;;;;;;;;;10290118;28;20080;-61
2023/03/25 16:18:38;;;;;;;35.63;23.75;;;;;;;;;;10293133;28;20095;-61
2023/03/25 16:23:40;;;;;;;52.80;26.38;;;;;;;;;;10289242;28;20069;-61
2023/03/25 16:28:41;;;;;;;45.17;25.20;;;;;;;;;;10288290;28;20088;-62
2023/03/25 16:33:39;;;;;;;68.18;28.92;;;;;;;;;;10290795;28;20079;-62
2023/03/25 16:38:38;;;;;;;32.83;18.48;;;;;;;;;;10290177;28;20091;-62
2023/03/25 16:43:38;;;;;;;15.32;11.73;;;;;;;;;;10291608;28;20439;-62
2023/03/25 16:48:38;;;;;;;28.42;15.95;;;;;;;;;;10291984;28;20064;-61
2023/03/25 16:53:38;;;;;;;14.13;10.75;;;;;;;;;;10288455;28;20079;-61
2023/03/25 16:58:37;;;;;;;15.65;10.18;;;;;;;;;;10280136;28;20064;-62
2023/03/25 17:03:41;;;;;;;22.30;16.17;;;;;;;;;;10292002;28;20068;-62
2023/03/25 17:08:39;;;;;;;;;;;;;;;;;;10293436;28;20088;-62
2023/03/25 17:13:41;;;;;;;27.90;19.15;;;;;;;;;;10288708;28;20346;-62
2023/03/25 17:18:41;;;;;;;21.48;16.33;;;;;;;;;;10293048;28;20074;-62
2023/03/25 17:23:43;;;;;;;8.65;7.80;;;;;;;;;;10288830;28;20064;-62
2023/03/25 17:28:42;;;;;;;11.07;9.48;;;;;;;;;;10290460;28;20099;-62
2023/03/25 17:33:47;;;;;;;25.33;19.20;;;;;;;;;;10281464;28;20551;-61
2023/03/25 17:38:45;;;;;;;;;;;;;;;;;;10292678;28;20505;-62
2023/03/25 17:43:44;;;;;;;14.57;11.00;;;;;;;;;;10286833;28;19960;-61
2023/03/25 17:48:44;;;;;;;13.95;12.45;;;;;;;;;;10290651;28;20290;-61
2023/03/25 17:53:42;;;;;;;11.13;9.00;;;;;;;;;;10285499;28;20075;-61
2023/03/25 17:58:40;;;;;;;11.10;8.65;;;;;;;;;;10287288;28;20088;-61
2023/03/25 18:03:41;;;;;;;8.35;7.22;;;;;;;;;;10286302;28;20068;-59
2023/03/25 18:08:42;;;;;;;9.63;7.65;;;;;;;;;;10279527;28;20076;-62
2023/03/25 18:13:44;;;;;;;16.17;10.65;;;;;;;;;;10280387;28;20459;-61
2023/03/25 18:18:43;;;;;;;10.90;8.18;;;;;;;;;;10288378;28;20080;-62
2023/03/25 18:23:46;;;;;;;13.98;7.70;;;;;;;;;;10282229;28;20061;-61
2023/03/25 18:28:45;;;;;;;9.70;6.57;;;;;;;;;;10288862;28;20060;-62
2023/03/25 18:33:43;;;;;;;10.07;7.43;;;;;;;;;;10282570;28;20075;-67
2023/03/25 18:38:44;;;;;;;11.45;9.13;;;;;;;;;;10284482;28;20084;-65
2023/03/25 18:43:44;;;;;;;30.60;27.30;;;;;;;;;;10288532;28;20077;-67
2023/03/25 18:48:42;;;;;;;7.80;5.97;;;;;;;;;;10273665;28;20649;-68
2023/03/25 18:53:48;;;;;;;7.80;7.00;;;;;;;;;;10283540;28;20068;-67
2023/03/25 18:58:47;;;;;;;27.65;18.15;;;;;;;;;;10276261;28;20084;-65
2023/03/25 19:03:45;;;;;;;74.75;45.67;;;;;;;;;;10285721;28;20060;-65
2023/03/25 19:08:44;;;;;;;25.80;17.55;;;;;;;;;;10292343;28;20068;-64
2023/03/25 19:13:44;;;;;;;14.88;9.25;;;;;;;;;;10288751;28;20517;-64
2023/03/25 19:18:42;;;;;;;9.63;7.80;;;;;;;;;;10286041;28;20492;-64
2023/03/25 19:23:41;;;;;;;13.88;9.48;;;;;;;;;;10284850;28;20076;-65
2023/03/25 19:28:40;;;;;;;9.07;6.13;;;;;;;;;;10290284;28;20065;-64
2023/03/25 19:33:39;;;;;;;20.13;12.65;;;;;;;;;;10293092;28;20075;-64
2023/03/25 19:38:38;;;;;;;8.70;7.30;;;;;;;;;;10296027;28;20084;-65
2023/03/25 19:43:36;;;;;;;8.27;5.93;;;;;;;;;;10293635;28;20448;-65
2023/03/25 19:48:35;;;;;;;13.38;8.07;;;;;;;;;;10291609;28;20089;-63
2023/03/25 19:53:35;;;;;;;9.73;5.90;;;;;;;;;;10287286;28;20057;-64
2023/03/25 19:58:34;;;;;;;9.63;7.00;;;;;;;;;;10272971;28;20139;-66
2023/03/25 20:03:34;;;;;;;20.77;12.93;;;;;;;;;;10284006;28;20072;-64
2023/03/25 20:08:34;;;;;;;14.27;8.00;;;;;;;;;;10290395;28;20087;-64
2023/03/25 20:13:35;;;;;;;13.32;9.18;;;;;;;;;;10292590;28;20084;-64
2023/03/25 20:18:33;;;;;;;11.23;7.22;;;;;;;;;;10285902;28;20077;-64
2023/03/25 20:23:32;;;;;;;15.35;9.68;;;;;;;;;;10289613;28;20067;-64
2023/03/25 20:28:30;;;;;;;15.70;11.77;;;;;;;;;;10290691;28;20507;-66
2023/03/25 20:33:31;;;;;;;16.52;9.35;;;;;;;;;;10291982;28;20073;-64
2023/03/25 20:38:29;;;;;;;12.63;8.43;;;;;;;;;;10289040;28;20099;-65
2023/03/25 20:43:28;;;;;;;10.52;8.35;;;;;;;;;;10285227;28;20071;-66
2023/03/25 20:48:26;;;;;;;9.60;7.10;;;;;;;;;;10289485;28;20076;-64
2023/03/25 20:53:29;;;;;;;6.03;5.38;;;;;;;;;;10281954;28;20064;-64
2023/03/25 20:58:28;;;;;;;7.05;5.68;;;;;;;;;;10288113;28;20146;-63
2023/03/25 21:03:27;;;;;;;7.90;6.25;;;;;;;;;;10296340;28;20493;-65
2023/03/25 21:08:29;;;;;;;9.38;5.78;;;;;;;;;;10282648;28;20075;-64
2023/03/25 21:13:30;;;;;;;6.45;5.60;;;;;;;;;;10293826;28;20080;-65
2023/03/25 21:18:28;;;;;;;5.53;4.90;;;;;;;;;;10277024;28;20068;-65
2023/03/25 21:23:30;;;;;;;6.53;5.30;;;;;;;;;;10292884;28;20069;-63
2023/03/25 21:28:29;;;;;;;7.82;6.18;;;;;;;;;;10289498;28;20068;-64
2023/03/25 21:33:27;;;;;;;15.40;9.45;;;;;;;;;;10285316;28;20502;-64
2023/03/25 21:38:26;;;;;;;7.40;5.70;;;;;;;;;;10281521;28;20095;-64
2023/03/25 21:43:28;;;;;;;9.40;6.95;;;;;;;;;;10287171;28;20143;-63
2023/03/25 21:48:26;;;;;;;6.20;5.60;;;;;;;;;;10286400;28;20072;-63
2023/03/25 21:53:30;;;;;;;6.82;5.63;;;;;;;;;;10283954;28;20064;-63
2023/03/25 21:58:31;;;;;;;7.38;5.95;;;;;;;;;;10292582;28;20072;-63
2023/03/25 22:03:34;;;;;;;6.13;5.35;;;;;;;;;;10288132;28;20080;-63
2023/03/25 22:08:32;;;;;;;8.93;7.20;;;;;;;;;;10289100;28;20068;-63
2023/03/25 22:13:31;;;;;;;10.95;9.65;;;;;;;;;;10289048;28;20076;-64
2023/03/25 22:18:30;;;;;;;7.95;5.65;;;;;;;;;;10288849;28;20548;-64
2023/03/25 22:23:28;;;;;;;6.53;5.80;;;;;;;;;;10284389;28;20076;-63
2023/03/25 22:28:26;;;;;;;7.50;5.80;;;;;;;;;;10285629;28;20350;-64
2023/03/25 22:33:26;;;;;;;6.95;5.70;;;;;;;;;;10280621;28;20072;-64
2023/03/25 22:38:24;;;;;;;9.60;5.80;;;;;;;;;;10276260;28;20095;-64
2023/03/25 22:43:23;;;;;;;6.25;5.65;;;;;;;;;;10277585;28;20076;-63
2023/03/25 22:48:21;;;;;;;9.27;6.35;;;;;;;;;;10282612;28;20067;-65
2023/03/25 22:53:21;;;;;;;7.38;6.68;;;;;;;;;;10286583;28;20091;-66
2023/03/25 22:58:19;;;;;;;8.57;7.68;;;;;;;;;;10293285;28;20068;-66
2023/03/25 23:03:17;;;;;;;9.00;7.97;;;;;;;;;;10293392;28;20105;-65
2023/03/25 23:08:16;;;;;;;12.00;9.40;;;;;;;;;;10297004;28;20064;-65
2023/03/25 23:13:15;;;;;;;7.63;6.90;;;;;;;;;;10290590;28;20520;-65
2023/03/25 23:18:14;;;;;;;7.57;6.82;;;;;;;;;;10289436;28;20498;-65
2023/03/25 23:23:12;;;;;;;10.20;7.18;;;;;;;;;;10292111;28;20075;-65
2023/03/25 23:28:11;;;;;;;8.05;7.05;;;;;;;;;;10298145;28;20079;-65
2023/03/25 23:33:10;;;;;;;8.30;7.15;;;;;;;;;;10296514;28;20064;-65
2023/03/25 23:38:08;;;;;;;6.57;5.88;;;;;;;;;;10294288;28;20509;-66
2023/03/25 23:43:07;;;;;;;8.98;6.28;;;;;;;;;;10296942;28;20075;-66
2023/03/25 23:48:06;;;;;;;6.45;5.85;;;;;;;;;;10293515;28;20068;-66
2023/03/25 23:53:06;;;;;;;5.68;4.95;;;;;;;;;;10295385;28;20094;-65
2023/03/25 23:58:04;;;;;;;9.38;5.95;;;;;;;;;;10296430;28;20088;-66
